sensor_id;sensor_type;location;lat;lon;timestamp;P1;durP1;ratioP1;P2;durP2;ratioP2
12760;SDS011;6444;49.742;6.114;2024-02-26T00:00:42;2.83;;;1.10;;
12760;SDS011;6444;49.742;6.114;2024-02-26T00:03:09;1.53;;;0.90;;
12760;SDS011;6444;49.742;6.114;2024-02-26T00:05:36;1.17;;;1.07;;
12760;SDS011;6444;49.742;6.114;2024-02-26T00:08:03;2.43;;;1.00;;
12760;SDS011;6444;49.742;6.114;2024-02-26T00:10:30;1.50;;;1.10;;
12760;SDS011;6444;49.742;6.114;2024-02-26T00:12:57;1.43;;;1.00;;
12760;SDS011;6444;49.742;6.114;2024-02-26T00:15:23;2.93;;;1.20;;
12760;SDS011;6444;49.742;6.114;2024-02-26T00:17:51;1.57;;;0.90;;
12760;SDS011;6444;49.742;6.114;2024-02-26T00:20:17;1.33;;;1.10;;
12760;SDS011;6444;49.742;6.114;2024-02-26T00:22:44;0.80;;;0.80;;
12760;SDS011;6444;49.742;6.114;2024-02-26T00:25:11;1.20;;;1.10;;
12760;SDS011;6444;49.742;6.114;2024-02-26T00:27:37;1.27;;;0.70;;
12760;SDS011;6444;49.742;6.114;2024-02-26T00:30:04;1.17;;;1.00;;
12760;SDS011;6444;49.742;6.114;2024-02-26T00:32:31;1.23;;;1.13;;
12760;SDS011;6444;49.742;6.114;2024-02-26T00:34:57;2.20;;;1.03;;
12760;SDS011;6444;49.742;6.114;2024-02-26T00:37:24;1.10;;;1.00;;
12760;SDS011;6444;49.742;6.114;2024-02-26T00:39:51;1.17;;;1.07;;
12760;SDS011;6444;49.742;6.114;2024-02-26T00:42:18;1.23;;;1.00;;
12760;SDS011;6444;49.742;6.114;2024-02-26T00:44:45;1.13;;;0.90;;
12760;SDS011;6444;49.742;6.114;2024-02-26T00:47:11;1.63;;;1.07;;
12760;SDS011;6444;49.742;6.114;2024-02-26T00:49:39;1.10;;;0.80;;
12760;SDS011;6444;49.742;6.114;2024-02-26T00:52:05;2.30;;;0.80;;
12760;SDS011;6444;49.742;6.114;2024-02-26T00:54:32;0.80;;;0.80;;
12760;SDS011;6444;49.742;6.114;2024-02-26T00:56:59;1.43;;;1.00;;
12760;SDS011;6444;49.742;6.114;2024-02-26T00:59:25;1.60;;;1.30;;
12760;SDS011;6444;49.742;6.114;2024-02-26T01:01:52;2.10;;;1.30;;
12760;SDS011;6444;49.742;6.114;2024-02-26T01:04:19;1.33;;;1.13;;
12760;SDS011;6444;49.742;6.114;2024-02-26T01:06:45;1.90;;;1.40;;
12760;SDS011;6444;49.742;6.114;2024-02-26T01:09:13;1.50;;;1.07;;
12760;SDS011;6444;49.742;6.114;2024-02-26T01:11:39;2.70;;;1.10;;
12760;SDS011;6444;49.742;6.114;2024-02-26T01:14:06;1.27;;;1.00;;
12760;SDS011;6444;49.742;6.114;2024-02-26T01:16:33;1.50;;;1.40;;
12760;SDS011;6444;49.742;6.114;2024-02-26T01:19:00;2.13;;;1.20;;
12760;SDS011;6444;49.742;6.114;2024-02-26T01:21:26;1.50;;;1.40;;
12760;SDS011;6444;49.742;6.114;2024-02-26T01:23:54;1.47;;;1.33;;
12760;SDS011;6444;49.742;6.114;2024-02-26T01:26:22;2.23;;;1.50;;
12760;SDS011;6444;49.742;6.114;2024-02-26T01:28:48;2.07;;;1.30;;
12760;SDS011;6444;49.742;6.114;2024-02-26T01:31:15;2.13;;;1.40;;
12760;SDS011;6444;49.742;6.114;2024-02-26T01:33:42;1.43;;;1.07;;
12760;SDS011;6444;49.742;6.114;2024-02-26T01:36:08;1.93;;;1.10;;
12760;SDS011;6444;49.742;6.114;2024-02-26T01:38:35;1.70;;;1.10;;
12760;SDS011;6444;49.742;6.114;2024-02-26T01:41:02;2.17;;;1.20;;
12760;SDS011;6444;49.742;6.114;2024-02-26T01:43:28;1.53;;;1.40;;
12760;SDS011;6444;49.742;6.114;2024-02-26T01:45:55;1.30;;;1.20;;
12760;SDS011;6444;49.742;6.114;2024-02-26T01:48:21;1.33;;;1.23;;
12760;SDS011;6444;49.742;6.114;2024-02-26T01:50:48;2.53;;;1.50;;
12760;SDS011;6444;49.742;6.114;2024-02-26T01:53:15;1.43;;;1.07;;
12760;SDS011;6444;49.742;6.114;2024-02-26T01:55:41;2.93;;;1.43;;
12760;SDS011;6444;49.742;6.114;2024-02-26T01:58:09;2.70;;;1.40;;
12760;SDS011;6444;49.742;6.114;2024-02-26T02:00:35;1.00;;;0.90;;
12760;SDS011;6444;49.742;6.114;2024-02-26T02:03:02;1.13;;;0.80;;
12760;SDS011;6444;49.742;6.114;2024-02-26T02:05:29;1.03;;;0.90;;
12760;SDS011;6444;49.742;6.114;2024-02-26T02:07:55;1.30;;;1.20;;
12760;SDS011;6444;49.742;6.114;2024-02-26T02:10:22;1.65;;;1.37;;
12760;SDS011;6444;49.742;6.114;2024-02-26T02:12:49;1.30;;;1.20;;
12760;SDS011;6444;49.742;6.114;2024-02-26T02:15:15;1.80;;;1.30;;
12760;SDS011;6444;49.742;6.114;2024-02-26T02:17:42;1.03;;;1.00;;
12760;SDS011;6444;49.742;6.114;2024-02-26T02:20:09;1.67;;;1.40;;
12760;SDS011;6444;49.742;6.114;2024-02-26T02:22:36;1.43;;;1.30;;
12760;SDS011;6444;49.742;6.114;2024-02-26T02:25:03;1.43;;;1.30;;
12760;SDS011;6444;49.742;6.114;2024-02-26T02:27:29;1.77;;;1.40;;
12760;SDS011;6444;49.742;6.114;2024-02-26T02:29:56;1.90;;;1.60;;
12760;SDS011;6444;49.742;6.114;2024-02-26T02:32:22;2.10;;;1.73;;
12760;SDS011;6444;49.742;6.114;2024-02-26T02:34:50;3.97;;;2.20;;
12760;SDS011;6444;49.742;6.114;2024-02-26T02:37:16;2.00;;;1.80;;
12760;SDS011;6444;49.742;6.114;2024-02-26T02:39:43;2.30;;;1.53;;
12760;SDS011;6444;49.742;6.114;2024-02-26T02:42:11;2.50;;;2.30;;
12760;SDS011;6444;49.742;6.114;2024-02-26T02:44:37;1.80;;;1.70;;
12760;SDS011;6444;49.742;6.114;2024-02-26T02:47:04;1.77;;;1.43;;
12760;SDS011;6444;49.742;6.114;2024-02-26T02:49:31;1.43;;;1.33;;
12760;SDS011;6444;49.742;6.114;2024-02-26T02:51:58;1.93;;;1.30;;
12760;SDS011;6444;49.742;6.114;2024-02-26T02:54:24;1.50;;;1.40;;
12760;SDS011;6444;49.742;6.114;2024-02-26T02:56:52;1.20;;;1.10;;
12760;SDS011;6444;49.742;6.114;2024-02-26T02:59:18;1.20;;;1.10;;
12760;SDS011;6444;49.742;6.114;2024-02-26T03:01:45;1.73;;;1.10;;
12760;SDS011;6444;49.742;6.114;2024-02-26T03:04:12;1.47;;;0.90;;
12760;SDS011;6444;49.742;6.114;2024-02-26T03:06:39;1.10;;;1.00;;
12760;SDS011;6444;49.742;6.114;2024-02-26T03:09:06;2.20;;;1.00;;
12760;SDS011;6444;49.742;6.114;2024-02-26T03:11:32;1.13;;;1.03;;
12760;SDS011;6444;49.742;6.114;2024-02-26T03:14:00;0.83;;;0.80;;
12760;SDS011;6444;49.742;6.114;2024-02-26T03:16:26;1.87;;;0.97;;
12760;SDS011;6444;49.742;6.114;2024-02-26T03:18:53;0.90;;;0.90;;
12760;SDS011;6444;49.742;6.114;2024-02-26T03:21:20;0.90;;;0.90;;
12760;SDS011;6444;49.742;6.114;2024-02-26T03:23:47;0.93;;;0.90;;
12760;SDS011;6444;49.742;6.114;2024-02-26T03:26:13;1.10;;;0.80;;
12760;SDS011;6444;49.742;6.114;2024-02-26T03:28:40;1.00;;;0.80;;
12760;SDS011;6444;49.742;6.114;2024-02-26T03:31:07;1.60;;;0.90;;
12760;SDS011;6444;49.742;6.114;2024-02-26T03:33:34;0.90;;;0.90;;
12760;SDS011;6444;49.742;6.114;2024-02-26T03:36:01;1.10;;;1.00;;
12760;SDS011;6444;49.742;6.114;2024-02-26T03:38:28;0.90;;;0.90;;
12760;SDS011;6444;49.742;6.114;2024-02-26T03:40:55;1.27;;;1.00;;
12760;SDS011;6444;49.742;6.114;2024-02-26T03:43:21;2.00;;;0.70;;
12760;SDS011;6444;49.742;6.114;2024-02-26T03:45:49;1.10;;;0.90;;
12760;SDS011;6444;49.742;6.114;2024-02-26T03:48:15;0.80;;;0.80;;
12760;SDS011;6444;49.742;6.114;2024-02-26T03:50:42;1.00;;;1.00;;
12760;SDS011;6444;49.742;6.114;2024-02-26T03:53:09;1.20;;;0.90;;
12760;SDS011;6444;49.742;6.114;2024-02-26T03:55:36;1.10;;;1.00;;
12760;SDS011;6444;49.742;6.114;2024-02-26T03:58:03;1.23;;;1.13;;
12760;SDS011;6444;49.742;6.114;2024-02-26T04:00:29;1.43;;;1.00;;
12760;SDS011;6444;49.742;6.114;2024-02-26T04:02:56;1.30;;;1.10;;
12760;SDS011;6444;49.742;6.114;2024-02-26T04:05:23;0.90;;;0.90;;
12760;SDS011;6444;49.742;6.114;2024-02-26T04:07:50;1.27;;;1.17;;
12760;SDS011;6444;49.742;6.114;2024-02-26T04:10:17;0.80;;;0.80;;
12760;SDS011;6444;49.742;6.114;2024-02-26T04:12:43;1.00;;;0.90;;
12760;SDS011;6444;49.742;6.114;2024-02-26T04:15:11;0.87;;;0.87;;
12760;SDS011;6444;49.742;6.114;2024-02-26T04:17:38;1.13;;;1.00;;
12760;SDS011;6444;49.742;6.114;2024-02-26T04:20:04;1.23;;;1.13;;
12760;SDS011;6444;49.742;6.114;2024-02-26T04:22:35;3.53;;;2.50;;
12760;SDS011;6444;49.742;6.114;2024-02-26T04:25:01;3.27;;;1.40;;
12760;SDS011;6444;49.742;6.114;2024-02-26T04:27:28;1.20;;;1.10;;
12760;SDS011;6444;49.742;6.114;2024-02-26T04:29:55;1.30;;;1.20;;
12760;SDS011;6444;49.742;6.114;2024-02-26T04:32:22;1.53;;;1.00;;
12760;SDS011;6444;49.742;6.114;2024-02-26T04:34:48;1.30;;;1.20;;
12760;SDS011;6444;49.742;6.114;2024-02-26T04:37:16;1.20;;;1.10;;
12760;SDS011;6444;49.742;6.114;2024-02-26T04:39:42;1.30;;;1.20;;
12760;SDS011;6444;49.742;6.114;2024-02-26T04:42:09;1.80;;;1.30;;
12760;SDS011;6444;49.742;6.114;2024-02-26T04:44:36;1.57;;;1.47;;
12760;SDS011;6444;49.742;6.114;2024-02-26T04:47:03;1.47;;;1.37;;
12760;SDS011;6444;49.742;6.114;2024-02-26T04:49:30;1.57;;;1.40;;
12760;SDS011;6444;49.742;6.114;2024-02-26T04:51:56;1.43;;;1.30;;
12760;SDS011;6444;49.742;6.114;2024-02-26T04:54:23;1.40;;;1.30;;
12760;SDS011;6444;49.742;6.114;2024-02-26T04:56:50;1.40;;;1.20;;
12760;SDS011;6444;49.742;6.114;2024-02-26T04:59:17;1.80;;;1.30;;
12760;SDS011;6444;49.742;6.114;2024-02-26T05:01:44;1.33;;;1.23;;
12760;SDS011;6444;49.742;6.114;2024-02-26T05:04:11;1.77;;;1.30;;
12760;SDS011;6444;49.742;6.114;2024-02-26T05:06:38;1.47;;;1.20;;
12760;SDS011;6444;49.742;6.114;2024-02-26T05:09:04;1.50;;;1.40;;
12760;SDS011;6444;49.742;6.114;2024-02-26T05:11:31;1.50;;;1.33;;
12760;SDS011;6444;49.742;6.114;2024-02-26T05:13:58;2.77;;;1.50;;
12760;SDS011;6444;49.742;6.114;2024-02-26T05:16:25;2.03;;;1.30;;
12760;SDS011;6444;49.742;6.114;2024-02-26T05:18:51;1.47;;;1.37;;
12760;SDS011;6444;49.742;6.114;2024-02-26T05:21:19;2.40;;;1.40;;
12760;SDS011;6444;49.742;6.114;2024-02-26T05:23:45;2.27;;;1.60;;
12760;SDS011;6444;49.742;6.114;2024-02-26T05:26:18;2.57;;;1.70;;
12760;SDS011;6444;49.742;6.114;2024-02-26T05:28:39;4.80;;;3.30;;
12760;SDS011;6444;49.742;6.114;2024-02-26T05:31:05;3.17;;;2.87;;
12760;SDS011;6444;49.742;6.114;2024-02-26T05:33:32;3.97;;;3.67;;
12760;SDS011;6444;49.742;6.114;2024-02-26T05:35:59;3.13;;;2.83;;
12760;SDS011;6444;49.742;6.114;2024-02-26T05:38:26;2.70;;;2.50;;
12760;SDS011;6444;49.742;6.114;2024-02-26T05:40:53;4.83;;;1.77;;
12760;SDS011;6444;49.742;6.114;2024-02-26T05:43:19;2.53;;;1.97;;
12760;SDS011;6444;49.742;6.114;2024-02-26T05:45:47;1.17;;;1.07;;
12760;SDS011;6444;49.742;6.114;2024-02-26T05:48:13;1.30;;;1.20;;
12760;SDS011;6444;49.742;6.114;2024-02-26T05:50:40;1.40;;;1.20;;
12760;SDS011;6444;49.742;6.114;2024-02-26T05:53:06;1.07;;;0.97;;
12760;SDS011;6444;49.742;6.114;2024-02-26T05:55:33;1.60;;;1.30;;
12760;SDS011;6444;49.742;6.114;2024-02-26T05:58:00;1.20;;;0.93;;
12760;SDS011;6444;49.742;6.114;2024-02-26T06:00:26;1.27;;;1.00;;
12760;SDS011;6444;49.742;6.114;2024-02-26T06:02:53;1.12;;;1.02;;
12760;SDS011;6444;49.742;6.114;2024-02-26T06:05:20;0.83;;;0.83;;
12760;SDS011;6444;49.742;6.114;2024-02-26T06:07:46;1.40;;;1.10;;
12760;SDS011;6444;49.742;6.114;2024-02-26T06:10:13;1.20;;;1.10;;
12760;SDS011;6444;49.742;6.114;2024-02-26T06:12:39;1.12;;;1.00;;
12760;SDS011;6444;49.742;6.114;2024-02-26T06:15:06;0.80;;;0.70;;
12760;SDS011;6444;49.742;6.114;2024-02-26T06:17:33;1.07;;;0.97;;
12760;SDS011;6444;49.742;6.114;2024-02-26T06:19:59;0.80;;;0.80;;
12760;SDS011;6444;49.742;6.114;2024-02-26T06:22:26;1.00;;;0.90;;
12760;SDS011;6444;49.742;6.114;2024-02-26T06:24:53;1.23;;;1.13;;
12760;SDS011;6444;49.742;6.114;2024-02-26T06:27:20;5.53;;;3.90;;
12760;SDS011;6444;49.742;6.114;2024-02-26T06:29:47;2.93;;;2.43;;
12760;SDS011;6444;49.742;6.114;2024-02-26T06:32:13;1.20;;;1.10;;
12760;SDS011;6444;49.742;6.114;2024-02-26T06:34:40;1.63;;;1.10;;
12760;SDS011;6444;49.742;6.114;2024-02-26T06:37:09;1.37;;;1.07;;
12760;SDS011;6444;49.742;6.114;2024-02-26T06:39:36;2.50;;;1.50;;
12760;SDS011;6444;49.742;6.114;2024-02-26T06:42:03;2.65;;;1.30;;
12760;SDS011;6444;49.742;6.114;2024-02-26T06:44:30;2.83;;;1.57;;
12760;SDS011;6444;49.742;6.114;2024-02-26T06:46:59;1.80;;;1.20;;
12760;SDS011;6444;49.742;6.114;2024-02-26T06:49:26;1.47;;;1.37;;
12760;SDS011;6444;49.742;6.114;2024-02-26T06:51:53;1.43;;;1.33;;
12760;SDS011;6444;49.742;6.114;2024-02-26T06:54:19;2.33;;;1.47;;
12760;SDS011;6444;49.742;6.114;2024-02-26T06:56:46;1.57;;;1.47;;
12760;SDS011;6444;49.742;6.114;2024-02-26T06:59:13;1.97;;;1.20;;
12760;SDS011;6444;49.742;6.114;2024-02-26T07:01:40;1.73;;;1.63;;
12760;SDS011;6444;49.742;6.114;2024-02-26T07:04:06;2.10;;;1.70;;
12760;SDS011;6444;49.742;6.114;2024-02-26T07:06:34;2.23;;;2.03;;
12760;SDS011;6444;49.742;6.114;2024-02-26T07:09:00;2.10;;;1.70;;
12760;SDS011;6444;49.742;6.114;2024-02-26T07:11:27;1.70;;;1.60;;
12760;SDS011;6444;49.742;6.114;2024-02-26T07:13:54;1.93;;;1.80;;
12760;SDS011;6444;49.742;6.114;2024-02-26T07:16:21;1.70;;;1.60;;
12760;SDS011;6444;49.742;6.114;2024-02-26T07:18:48;2.33;;;2.00;;
12760;SDS011;6444;49.742;6.114;2024-02-26T07:21:14;2.60;;;2.10;;
12760;SDS011;6444;49.742;6.114;2024-02-26T07:23:41;2.90;;;2.30;;
12760;SDS011;6444;49.742;6.114;2024-02-26T07:26:08;2.73;;;2.33;;
12760;SDS011;6444;49.742;6.114;2024-02-26T07:28:35;2.80;;;2.60;;
12760;SDS011;6444;49.742;6.114;2024-02-26T07:31:02;3.50;;;2.33;;
12760;SDS011;6444;49.742;6.114;2024-02-26T07:33:28;4.03;;;2.80;;
12760;SDS011;6444;49.742;6.114;2024-02-26T07:35:55;2.77;;;2.53;;
12760;SDS011;6444;49.742;6.114;2024-02-26T07:38:21;3.57;;;2.60;;
12760;SDS011;6444;49.742;6.114;2024-02-26T07:40:48;3.10;;;2.90;;
12760;SDS011;6444;49.742;6.114;2024-02-26T07:43:15;3.53;;;3.22;;
12760;SDS011;6444;49.742;6.114;2024-02-26T07:45:41;3.27;;;2.40;;
12760;SDS011;6444;49.742;6.114;2024-02-26T07:48:08;4.17;;;2.70;;
12760;SDS011;6444;49.742;6.114;2024-02-26T07:50:35;3.20;;;2.80;;
12760;SDS011;6444;49.742;6.114;2024-02-26T07:53:01;2.93;;;2.40;;
12760;SDS011;6444;49.742;6.114;2024-02-26T07:55:28;3.13;;;2.70;;
12760;SDS011;6444;49.742;6.114;2024-02-26T07:57:54;3.53;;;3.13;;
12760;SDS011;6444;49.742;6.114;2024-02-26T08:00:21;3.17;;;2.87;;
12760;SDS011;6444;49.742;6.114;2024-02-26T08:02:48;3.13;;;2.70;;
12760;SDS011;6444;49.742;6.114;2024-02-26T08:05:14;5.20;;;4.00;;
12760;SDS011;6444;49.742;6.114;2024-02-26T08:07:41;2.90;;;2.60;;
12760;SDS011;6444;49.742;6.114;2024-02-26T08:10:08;2.93;;;2.63;;
12760;SDS011;6444;49.742;6.114;2024-02-26T08:12:34;3.13;;;2.83;;
12760;SDS011;6444;49.742;6.114;2024-02-26T08:15:01;4.27;;;3.00;;
12760;SDS011;6444;49.742;6.114;2024-02-26T08:17:27;4.77;;;2.80;;
12760;SDS011;6444;49.742;6.114;2024-02-26T08:19:54;3.20;;;2.90;;
12760;SDS011;6444;49.742;6.114;2024-02-26T08:22:21;3.57;;;2.43;;
12760;SDS011;6444;49.742;6.114;2024-02-26T08:24:47;2.87;;;2.50;;
12760;SDS011;6444;49.742;6.114;2024-02-26T08:27:14;3.50;;;2.60;;
12760;SDS011;6444;49.742;6.114;2024-02-26T08:29:41;3.67;;;3.20;;
12760;SDS011;6444;49.742;6.114;2024-02-26T08:32:07;4.80;;;4.40;;
12760;SDS011;6444;49.742;6.114;2024-02-26T08:34:34;3.57;;;3.27;;
12760;SDS011;6444;49.742;6.114;2024-02-26T08:37:00;4.47;;;3.20;;
12760;SDS011;6444;49.742;6.114;2024-02-26T08:39:27;4.03;;;3.63;;
12760;SDS011;6444;49.742;6.114;2024-02-26T08:41:54;3.20;;;2.90;;
12760;SDS011;6444;49.742;6.114;2024-02-26T08:44:20;3.95;;;3.65;;
12760;SDS011;6444;49.742;6.114;2024-02-26T08:46:47;2.60;;;2.40;;
12760;SDS011;6444;49.742;6.114;2024-02-26T08:49:14;3.60;;;3.10;;
12760;SDS011;6444;49.742;6.114;2024-02-26T08:51:43;3.00;;;2.72;;
12760;SDS011;6444;49.742;6.114;2024-02-26T08:54:10;3.33;;;2.70;;
12760;SDS011;6444;49.742;6.114;2024-02-26T08:56:36;3.10;;;2.80;;
12760;SDS011;6444;49.742;6.114;2024-02-26T08:59:03;3.50;;;3.10;;
12760;SDS011;6444;49.742;6.114;2024-02-26T09:01:31;3.03;;;2.55;;
12760;SDS011;6444;49.742;6.114;2024-02-26T09:03:59;2.70;;;2.45;;
12760;SDS011;6444;49.742;6.114;2024-02-26T09:06:25;3.12;;;2.70;;
12760;SDS011;6444;49.742;6.114;2024-02-26T09:08:52;4.15;;;2.95;;
12760;SDS011;6444;49.742;6.114;2024-02-26T09:11:19;3.70;;;2.70;;
12760;SDS011;6444;49.742;6.114;2024-02-26T09:13:45;3.45;;;3.15;;
12760;SDS011;6444;49.742;6.114;2024-02-26T09:16:12;2.78;;;2.58;;
12760;SDS011;6444;49.742;6.114;2024-02-26T09:18:38;2.72;;;2.40;;
12760;SDS011;6444;49.742;6.114;2024-02-26T09:21:05;3.05;;;2.30;;
12760;SDS011;6444;49.742;6.114;2024-02-26T09:23:32;3.47;;;2.33;;
12760;SDS011;6444;49.742;6.114;2024-02-26T09:25:59;3.15;;;2.85;;
12760;SDS011;6444;49.742;6.114;2024-02-26T09:28:26;4.62;;;4.22;;
12760;SDS011;6444;49.742;6.114;2024-02-26T09:30:53;3.17;;;2.85;;
12760;SDS011;6444;49.742;6.114;2024-02-26T09:33:20;4.37;;;3.10;;
12760;SDS011;6444;49.742;6.114;2024-02-26T09:35:46;3.58;;;3.17;;
12760;SDS011;6444;49.742;6.114;2024-02-26T09:38:13;3.55;;;3.22;;
12760;SDS011;6444;49.742;6.114;2024-02-26T09:40:42;4.28;;;3.67;;
12760;SDS011;6444;49.742;6.114;2024-02-26T09:43:09;5.60;;;3.87;;
12760;SDS011;6444;49.742;6.114;2024-02-26T09:45:35;3.50;;;3.20;;
12760;SDS011;6444;49.742;6.114;2024-02-26T09:48:02;3.60;;;3.30;;
12760;SDS011;6444;49.742;6.114;2024-02-26T09:50:29;3.87;;;2.95;;
12760;SDS011;6444;49.742;6.114;2024-02-26T09:52:55;3.85;;;3.10;;
12760;SDS011;6444;49.742;6.114;2024-02-26T09:55:22;3.42;;;2.90;;
12760;SDS011;6444;49.742;6.114;2024-02-26T09:57:48;4.40;;;3.53;;
12760;SDS011;6444;49.742;6.114;2024-02-26T10:00:19;4.65;;;3.50;;
12760;SDS011;6444;49.742;6.114;2024-02-26T10:02:48;4.97;;;3.85;;
12760;SDS011;6444;49.742;6.114;2024-02-26T10:05:16;2.85;;;2.60;;
12760;SDS011;6444;49.742;6.114;2024-02-26T10:07:41;3.00;;;2.60;;
12760;SDS011;6444;49.742;6.114;2024-02-26T10:10:09;2.60;;;2.40;;
12760;SDS011;6444;49.742;6.114;2024-02-26T10:12:36;2.87;;;2.65;;
12760;SDS011;6444;49.742;6.114;2024-02-26T10:15:03;2.78;;;2.53;;
12760;SDS011;6444;49.742;6.114;2024-02-26T10:17:29;2.40;;;2.20;;
12760;SDS011;6444;49.742;6.114;2024-02-26T10:20:19;4.72;;;2.03;;
12760;SDS011;6444;49.742;6.114;2024-02-26T10:22:39;2.60;;;2.40;;
12760;SDS011;6444;49.742;6.114;2024-02-26T10:25:05;2.95;;;2.47;;
12760;SDS011;6444;49.742;6.114;2024-02-26T10:27:32;2.53;;;2.30;;
12760;SDS011;6444;49.742;6.114;2024-02-26T10:29:59;3.00;;;2.80;;
12760;SDS011;6444;49.742;6.114;2024-02-26T10:32:25;2.50;;;2.30;;
12760;SDS011;6444;49.742;6.114;2024-02-26T10:34:55;2.30;;;2.10;;
12760;SDS011;6444;49.742;6.114;2024-02-26T10:37:18;2.30;;;2.05;;
12760;SDS011;6444;49.742;6.114;2024-02-26T10:39:49;2.05;;;1.87;;
12760;SDS011;6444;49.742;6.114;2024-02-26T10:42:15;3.37;;;1.87;;
12760;SDS011;6444;49.742;6.114;2024-02-26T10:44:42;1.70;;;1.60;;
12760;SDS011;6444;49.742;6.114;2024-02-26T10:47:09;3.62;;;2.20;;
12760;SDS011;6444;49.742;6.114;2024-02-26T10:49:35;2.65;;;1.48;;
12760;SDS011;6444;49.742;6.114;2024-02-26T10:52:02;1.90;;;1.70;;
12760;SDS011;6444;49.742;6.114;2024-02-26T10:54:29;1.92;;;1.80;;
12760;SDS011;6444;49.742;6.114;2024-02-26T10:56:56;1.77;;;1.60;;
12760;SDS011;6444;49.742;6.114;2024-02-26T10:59:22;3.15;;;1.73;;
12760;SDS011;6444;49.742;6.114;2024-02-26T11:01:49;2.55;;;2.28;;
12760;SDS011;6444;49.742;6.114;2024-02-26T11:04:16;1.65;;;1.50;;
12760;SDS011;6444;49.742;6.114;2024-02-26T11:06:43;2.05;;;1.80;;
12760;SDS011;6444;49.742;6.114;2024-02-26T11:09:10;2.12;;;1.85;;
12760;SDS011;6444;49.742;6.114;2024-02-26T11:11:36;1.70;;;1.60;;
12760;SDS011;6444;49.742;6.114;2024-02-26T11:14:03;3.75;;;2.30;;
12760;SDS011;6444;49.742;6.114;2024-02-26T11:16:29;2.75;;;1.58;;
12760;SDS011;6444;49.742;6.114;2024-02-26T11:18:55;4.25;;;1.80;;
12760;SDS011;6444;49.742;6.114;2024-02-26T11:21:22;1.55;;;1.40;;
12760;SDS011;6444;49.742;6.114;2024-02-26T11:23:49;1.83;;;1.62;;
12760;SDS011;6444;49.742;6.114;2024-02-26T11:26:16;2.85;;;1.60;;
12760;SDS011;6444;49.742;6.114;2024-02-26T11:28:43;2.78;;;1.83;;
12760;SDS011;6444;49.742;6.114;2024-02-26T11:31:09;2.00;;;1.90;;
12760;SDS011;6444;49.742;6.114;2024-02-26T11:33:36;2.00;;;1.55;;
12760;SDS011;6444;49.742;6.114;2024-02-26T11:36:07;3.10;;;2.15;;
12760;SDS011;6444;49.742;6.114;2024-02-26T11:38:30;1.75;;;1.62;;
12760;SDS011;6444;49.742;6.114;2024-02-26T11:40:57;1.80;;;1.70;;
12760;SDS011;6444;49.742;6.114;2024-02-26T11:43:41;3.15;;;2.00;;
12760;SDS011;6444;49.742;6.114;2024-02-26T11:45:50;1.70;;;1.60;;
12760;SDS011;6444;49.742;6.114;2024-02-26T11:48:21;2.80;;;1.70;;
12760;SDS011;6444;49.742;6.114;2024-02-26T11:50:53;1.85;;;1.45;;
12760;SDS011;6444;49.742;6.114;2024-02-26T11:55:46;3.28;;;2.00;;
12760;SDS011;6444;49.742;6.114;2024-02-26T11:58:13;4.37;;;2.40;;
12760;SDS011;6444;49.742;6.114;2024-02-26T12:00:40;2.55;;;2.30;;
12760;SDS011;6444;49.742;6.114;2024-02-26T12:03:07;3.33;;;2.90;;
12760;SDS011;6444;49.742;6.114;2024-02-26T12:05:34;6.03;;;3.53;;
12760;SDS011;6444;49.742;6.114;2024-02-26T12:08:04;7.43;;;3.28;;
12760;SDS011;6444;49.742;6.114;2024-02-26T12:10:31;6.30;;;3.83;;
12760;SDS011;6444;49.742;6.114;2024-02-26T12:15:26;4.40;;;3.10;;
12760;SDS011;6444;49.742;6.114;2024-02-26T12:17:51;2.55;;;2.35;;
12760;SDS011;6444;49.742;6.114;2024-02-26T12:20:18;2.70;;;2.50;;
12760;SDS011;6444;49.742;6.114;2024-02-26T12:22:45;3.35;;;2.20;;
12760;SDS011;6444;49.742;6.114;2024-02-26T12:25:11;3.55;;;2.33;;
12760;SDS011;6444;49.742;6.114;2024-02-26T12:27:38;2.58;;;2.37;;
12760;SDS011;6444;49.742;6.114;2024-02-26T12:30:04;2.03;;;1.83;;
12760;SDS011;6444;49.742;6.114;2024-02-26T12:32:31;2.90;;;2.17;;
12760;SDS011;6444;49.742;6.114;2024-02-26T12:34:58;2.53;;;2.17;;
12760;SDS011;6444;49.742;6.114;2024-02-26T12:37:24;2.78;;;1.90;;
12760;SDS011;6444;49.742;6.114;2024-02-26T12:39:51;4.55;;;2.78;;
12760;SDS011;6444;49.742;6.114;2024-02-26T12:42:18;2.45;;;1.87;;
12760;SDS011;6444;49.742;6.114;2024-02-26T12:44:45;3.78;;;2.92;;
12760;SDS011;6444;49.742;6.114;2024-02-26T12:47:14;3.17;;;2.60;;
12760;SDS011;6444;49.742;6.114;2024-02-26T12:49:40;3.50;;;2.62;;
12760;SDS011;6444;49.742;6.114;2024-02-26T12:52:07;4.70;;;2.85;;
12760;SDS011;6444;49.742;6.114;2024-02-26T12:54:33;3.08;;;2.70;;
12760;SDS011;6444;49.742;6.114;2024-02-26T12:57:00;3.25;;;2.80;;
12760;SDS011;6444;49.742;6.114;2024-02-26T12:59:27;2.92;;;2.58;;
12760;SDS011;6444;49.742;6.114;2024-02-26T13:01:56;3.12;;;2.60;;
12760;SDS011;6444;49.742;6.114;2024-02-26T13:04:24;2.70;;;2.35;;
12760;SDS011;6444;49.742;6.114;2024-02-26T13:06:51;2.67;;;2.22;;
12760;SDS011;6444;49.742;6.114;2024-02-26T13:09:17;2.15;;;2.05;;
12760;SDS011;6444;49.742;6.114;2024-02-26T13:11:44;2.33;;;2.20;;
12760;SDS011;6444;49.742;6.114;2024-02-26T13:14:20;2.40;;;2.20;;
12760;SDS011;6444;49.742;6.114;2024-02-26T13:17:05;3.10;;;2.25;;
12760;SDS011;6444;49.742;6.114;2024-02-26T13:19:22;3.78;;;2.20;;
12760;SDS011;6444;49.742;6.114;2024-02-26T13:21:49;3.35;;;2.40;;
12760;SDS011;6444;49.742;6.114;2024-02-26T13:24:16;2.45;;;2.22;;
12760;SDS011;6444;49.742;6.114;2024-02-26T13:26:43;2.83;;;2.00;;
12760;SDS011;6444;49.742;6.114;2024-02-26T13:29:16;3.05;;;1.92;;
12760;SDS011;6444;49.742;6.114;2024-02-26T13:31:39;2.22;;;2.00;;
12760;SDS011;6444;49.742;6.114;2024-02-26T13:34:06;3.80;;;2.33;;
12760;SDS011;6444;49.742;6.114;2024-02-26T13:36:32;3.25;;;2.35;;
12760;SDS011;6444;49.742;6.114;2024-02-26T13:38:59;2.30;;;2.10;;
12760;SDS011;6444;49.742;6.114;2024-02-26T13:41:26;3.08;;;2.20;;
12760;SDS011;6444;49.742;6.114;2024-02-26T13:43:52;6.32;;;2.35;;
12760;SDS011;6444;49.742;6.114;2024-02-26T13:46:19;2.80;;;2.03;;
12760;SDS011;6444;49.742;6.114;2024-02-26T13:48:46;2.25;;;2.05;;
12760;SDS011;6444;49.742;6.114;2024-02-26T13:51:13;3.57;;;2.73;;
12760;SDS011;6444;49.742;6.114;2024-02-26T13:53:39;3.20;;;2.83;;
12760;SDS011;6444;49.742;6.114;2024-02-26T13:56:06;3.08;;;2.50;;
12760;SDS011;6444;49.742;6.114;2024-02-26T13:58:33;2.15;;;1.95;;
12760;SDS011;6444;49.742;6.114;2024-02-26T14:00:59;3.50;;;2.55;;
12760;SDS011;6444;49.742;6.114;2024-02-26T14:03:26;2.67;;;2.47;;
12760;SDS011;6444;49.742;6.114;2024-02-26T14:05:53;2.65;;;2.45;;
12760;SDS011;6444;49.742;6.114;2024-02-26T14:08:19;2.78;;;2.30;;
12760;SDS011;6444;49.742;6.114;2024-02-26T14:10:46;2.60;;;2.30;;
12760;SDS011;6444;49.742;6.114;2024-02-26T14:13:13;2.78;;;2.50;;
12760;SDS011;6444;49.742;6.114;2024-02-26T14:15:39;2.80;;;2.47;;
12760;SDS011;6444;49.742;6.114;2024-02-26T14:18:07;3.00;;;2.45;;
12760;SDS011;6444;49.742;6.114;2024-02-26T14:20:33;2.80;;;2.58;;
12760;SDS011;6444;49.742;6.114;2024-02-26T14:23:00;2.12;;;2.03;;
12760;SDS011;6444;49.742;6.114;2024-02-26T14:25:27;4.07;;;2.22;;
12760;SDS011;6444;49.742;6.114;2024-02-26T14:27:54;2.75;;;2.15;;
12760;SDS011;6444;49.742;6.114;2024-02-26T14:30:21;2.40;;;2.00;;
12760;SDS011;6444;49.742;6.114;2024-02-26T14:32:47;3.10;;;2.10;;
12760;SDS011;6444;49.742;6.114;2024-02-26T14:35:14;1.80;;;1.70;;
12760;SDS011;6444;49.742;6.114;2024-02-26T14:37:40;3.03;;;2.00;;
12760;SDS011;6444;49.742;6.114;2024-02-26T14:40:07;2.05;;;1.85;;
12760;SDS011;6444;49.742;6.114;2024-02-26T14:42:34;1.98;;;1.70;;
12760;SDS011;6444;49.742;6.114;2024-02-26T14:45:01;2.35;;;1.60;;
12760;SDS011;6444;49.742;6.114;2024-02-26T14:47:28;2.30;;;1.60;;
12760;SDS011;6444;49.742;6.114;2024-02-26T14:49:55;3.95;;;1.60;;
12760;SDS011;6444;49.742;6.114;2024-02-26T14:52:21;2.58;;;1.50;;
12760;SDS011;6444;49.742;6.114;2024-02-26T14:54:48;1.58;;;1.48;;
12760;SDS011;6444;49.742;6.114;2024-02-26T14:57:15;2.25;;;1.58;;
12760;SDS011;6444;49.742;6.114;2024-02-26T14:59:41;1.70;;;1.60;;
12760;SDS011;6444;49.742;6.114;2024-02-26T15:02:08;2.95;;;2.00;;